createdAt,value
2023-03-03T00:02:00.145Z,34.77
2023-03-03T00:04:23.692Z,39.10
2023-03-03T00:06:47.437Z,38.70
2023-03-03T00:09:10.973Z,36.77
2023-03-03T00:11:36.003Z,36.07
2023-03-03T00:13:59.543Z,36.97
2023-03-03T00:16:28.782Z,37.87
2023-03-03T00:18:53.095Z,33.33
2023-03-03T00:21:41.944Z,31.20
2023-03-03T00:24:21.773Z,35.03
2023-03-03T00:26:49.334Z,39.17
2023-03-03T00:29:31.965Z,34.50
2023-03-03T00:31:56.187Z,35.83
2023-03-03T00:34:27.695Z,36.90
2023-03-03T00:36:56.073Z,35.27
2023-03-03T00:39:32.438Z,34.30
2023-03-03T00:41:58.064Z,36.97
2023-03-03T00:44:42.400Z,30.67
2023-03-03T00:47:30.829Z,35.37
2023-03-03T00:49:57.161Z,36.13
2023-03-03T00:52:22.411Z,36.53
2023-03-03T00:54:46.679Z,38.17
2023-03-03T00:57:12.748Z,33.93
2023-03-03T00:59:38.118Z,39.07
2023-03-03T01:02:01.766Z,32.33
2023-03-03T01:04:25.592Z,33.87
2023-03-03T01:06:49.806Z,36.27
2023-03-03T01:09:13.432Z,36.17
2023-03-03T01:11:36.966Z,35.73
2023-03-03T01:14:02.113Z,35.80
2023-03-03T01:16:25.855Z,37.93
2023-03-03T01:18:49.579Z,36.03
2023-03-03T01:21:13.777Z,35.60
2023-03-03T01:23:37.542Z,38.00
2023-03-03T01:26:01.235Z,35.73
2023-03-03T01:28:24.865Z,36.53
2023-03-03T01:30:50.928Z,35.50
2023-03-03T01:33:14.590Z,37.50
2023-03-03T01:35:40.923Z,38.27
2023-03-03T01:38:04.773Z,36.43
2023-03-03T01:40:31.667Z,35.17
2023-03-03T01:42:55.641Z,35.20
2023-03-03T01:45:24.217Z,35.40
2023-03-03T01:47:55.476Z,39.90
2023-03-03T01:50:30.075Z,39.53
2023-03-03T01:52:53.716Z,38.80
2023-03-03T01:55:22.282Z,35.70
2023-03-03T01:57:50.056Z,36.70
2023-03-03T02:00:15.299Z,38.60
2023-03-03T02:02:39.760Z,37.27
2023-03-03T02:05:06.057Z,42.47
2023-03-03T02:07:32.131Z,37.43
2023-03-03T02:10:01.264Z,36.10
2023-03-03T02:12:33.671Z,44.17
2023-03-03T02:14:57.282Z,41.77
2023-03-03T02:17:20.866Z,39.30
2023-03-03T02:19:54.043Z,39.07
2023-03-03T02:22:25.056Z,35.03
2023-03-03T02:24:53.132Z,36.27
2023-03-03T02:27:18.790Z,40.63
2023-03-03T02:29:42.918Z,40.43
2023-03-03T02:32:07.624Z,42.87
2023-03-03T02:34:31.356Z,37.53
2023-03-03T02:36:54.913Z,37.90
2023-03-03T02:39:22.094Z,43.90
2023-03-03T02:41:53.337Z,36.33
2023-03-03T02:44:22.049Z,37.80
2023-03-03T02:46:48.591Z,39.50
2023-03-03T02:49:16.070Z,38.30
2023-03-03T02:51:40.598Z,38.97
2023-03-03T02:54:05.699Z,41.20
2023-03-03T02:56:30.200Z,39.67
2023-03-03T02:58:54.165Z,42.77
2023-03-03T03:01:19.720Z,39.53
2023-03-03T03:03:43.787Z,38.43
2023-03-03T03:06:07.643Z,40.47
2023-03-03T03:08:32.319Z,44.87
2023-03-03T03:10:57.970Z,42.33
2023-03-03T03:13:23.527Z,42.03
2023-03-03T03:15:48.216Z,39.27
2023-03-03T03:18:13.240Z,39.70
2023-03-03T03:20:40.116Z,41.33
2023-03-03T03:23:05.004Z,41.60
2023-03-03T03:25:28.582Z,52.40
2023-03-03T03:27:53.204Z,40.73
2023-03-03T03:30:17.195Z,40.73
2023-03-03T03:32:41.038Z,38.23
2023-03-03T03:35:08.209Z,39.33
2023-03-03T03:37:32.726Z,42.17
2023-03-03T03:39:56.392Z,33.77
2023-03-03T03:42:20.572Z,37.50
2023-03-03T03:44:44.746Z,35.40
2023-03-03T03:47:08.472Z,35.47
2023-03-03T03:49:33.044Z,32.60
2023-03-03T03:51:58.249Z,38.13
2023-03-03T03:54:24.849Z,33.43
2023-03-03T03:56:48.999Z,33.33
2023-03-03T03:59:12.685Z,34.87
2023-03-03T04:01:36.569Z,25.93
2023-03-03T04:04:00.498Z,30.87
2023-03-03T04:06:24.349Z,31.87
2023-03-03T04:08:50.408Z,34.90
2023-03-03T04:11:16.897Z,39.00
2023-03-03T04:13:40.449Z,43.33
2023-03-03T04:16:06.361Z,34.43
2023-03-03T04:18:30.369Z,36.83
2023-03-03T04:20:55.515Z,36.33
2023-03-03T04:23:19.686Z,45.17
2023-03-03T04:25:45.201Z,36.60
2023-03-03T04:28:11.470Z,48.50
2023-03-03T04:30:35.493Z,41.77
2023-03-03T04:32:59.017Z,42.37
2023-03-03T04:35:25.454Z,43.73
2023-03-03T04:37:50.001Z,47.00
2023-03-03T04:40:14.059Z,48.13
2023-03-03T04:42:40.660Z,48.63
2023-03-03T04:45:07.642Z,56.50
2023-03-03T04:47:33.381Z,41.00
2023-03-03T04:49:57.039Z,38.23
2023-03-03T04:52:20.718Z,42.37
2023-03-03T04:54:44.625Z,41.87
2023-03-03T04:57:09.517Z,40.93
2023-03-03T04:59:35.200Z,40.17
2023-03-03T05:01:59.493Z,42.87
2023-03-03T05:04:23.451Z,40.53
2023-03-03T05:06:46.981Z,38.43
2023-03-03T05:09:10.791Z,44.43
2023-03-03T05:11:34.323Z,37.70
2023-03-03T05:13:57.913Z,36.43
2023-03-03T05:16:22.861Z,36.77
2023-03-03T05:18:47.502Z,36.00
2023-03-03T05:21:11.018Z,39.17
2023-03-03T05:23:34.661Z,38.00
2023-03-03T05:25:58.617Z,41.60
2023-03-03T05:28:22.470Z,32.40
2023-03-03T05:30:46.116Z,37.27
2023-03-03T05:33:16.154Z,33.47
2023-03-03T05:35:39.759Z,35.50
2023-03-03T05:38:05.492Z,31.80
2023-03-03T05:40:29.837Z,28.57
2023-03-03T05:42:53.681Z,30.57
2023-03-03T05:45:20.409Z,33.57
2023-03-03T05:47:43.938Z,33.83
2023-03-03T05:50:10.514Z,30.20
2023-03-03T05:52:34.089Z,29.13
2023-03-03T05:54:57.656Z,30.87
2023-03-03T05:57:21.209Z,29.53
2023-03-03T05:59:44.773Z,32.73
2023-03-03T06:02:08.426Z,33.83
2023-03-03T06:04:32.018Z,40.73
2023-03-03T06:06:56.976Z,25.10
2023-03-03T06:09:21.150Z,30.13
2023-03-03T06:11:44.750Z,29.00
2023-03-03T06:14:08.293Z,32.07
2023-03-03T06:16:31.922Z,28.47
2023-03-03T06:18:55.545Z,30.57
2023-03-03T06:21:19.119Z,29.93
2023-03-03T06:23:44.171Z,29.77
2023-03-03T06:26:07.932Z,32.80
2023-03-03T06:28:31.512Z,32.07
2023-03-03T06:30:55.770Z,35.33
2023-03-03T06:33:19.283Z,36.13
2023-03-03T06:35:42.911Z,36.87
2023-03-03T06:38:06.559Z,34.00
2023-03-03T06:40:32.004Z,38.27
2023-03-03T06:42:55.759Z,36.50
2023-03-03T06:45:19.546Z,41.93
2023-03-03T06:47:43.168Z,36.20
2023-03-03T06:50:08.095Z,38.07
2023-03-03T06:52:31.640Z,37.10
2023-03-03T06:54:57.318Z,33.83
2023-03-03T06:57:28.609Z,43.00
2023-03-03T06:59:56.008Z,31.53
2023-03-03T07:02:20.889Z,32.10
2023-03-03T07:04:44.583Z,32.97
2023-03-03T07:07:18.640Z,29.67
2023-03-03T07:09:42.280Z,35.13
2023-03-03T07:12:14.829Z,29.97
2023-03-03T07:14:45.431Z,31.63
2023-03-03T07:17:17.241Z,30.03
2023-03-03T07:19:41.244Z,33.33
2023-03-03T07:22:17.246Z,29.83
2023-03-03T07:24:41.472Z,31.60
2023-03-03T07:27:14.112Z,34.47
2023-03-03T07:29:41.296Z,31.53
2023-03-03T07:32:13.110Z,30.30
2023-03-03T07:34:41.829Z,30.03
2023-03-03T07:37:14.690Z,27.53
2023-03-03T07:39:40.836Z,27.33
2023-03-03T07:42:21.019Z,25.93
2023-03-03T07:44:54.083Z,23.03
2023-03-03T07:47:22.811Z,22.47
2023-03-03T07:49:46.369Z,25.10
2023-03-03T07:52:30.959Z,27.10
2023-03-03T07:54:57.314Z,22.23
2023-03-03T07:57:24.996Z,25.93
2023-03-03T07:59:52.267Z,24.27
2023-03-03T08:02:41.570Z,21.33
2023-03-03T08:05:30.315Z,25.23
2023-03-03T08:07:54.182Z,25.07
2023-03-03T08:10:36.649Z,26.80
2023-03-03T08:13:02.914Z,22.70
2023-03-03T08:15:32.885Z,26.03
2023-03-03T08:17:57.721Z,23.73
2023-03-03T08:20:56.810Z,20.53
2023-03-03T08:23:22.006Z,20.93
2023-03-03T08:25:46.442Z,22.03
2023-03-03T08:28:10.688Z,21.60
2023-03-03T08:30:35.744Z,20.73
2023-03-03T08:32:59.594Z,20.33
2023-03-03T08:35:23.158Z,20.67
2023-03-03T08:37:46.823Z,21.13
2023-03-03T08:40:12.269Z,19.43
2023-03-03T08:42:35.923Z,21.47
2023-03-03T08:44:59.492Z,19.87
2023-03-03T08:47:24.456Z,22.00
2023-03-03T08:49:48.035Z,21.57
2023-03-03T08:52:11.650Z,19.90
2023-03-03T08:54:35.215Z,19.43
2023-03-03T08:56:58.827Z,21.57
2023-03-03T08:59:22.453Z,17.20
2023-03-03T09:01:46.106Z,21.53
2023-03-03T09:04:11.096Z,18.97
2023-03-03T09:06:34.717Z,21.53
2023-03-03T09:08:58.522Z,18.40
2023-03-03T09:11:27.572Z,18.57
2023-03-03T09:13:53.408Z,20.37
2023-03-03T09:16:17.797Z,23.10
2023-03-03T09:18:41.704Z,20.90
2023-03-03T09:21:24.848Z,19.30
2023-03-03T09:23:55.119Z,21.43
2023-03-03T09:26:30.395Z,24.53
2023-03-03T09:28:54.391Z,19.90
2023-03-03T09:31:27.218Z,19.13
2023-03-03T09:33:52.028Z,19.57
2023-03-03T09:36:26.289Z,20.87
2023-03-03T09:38:50.651Z,21.60
2023-03-03T09:41:59.130Z,20.47
2023-03-03T09:44:53.089Z,19.87
2023-03-03T09:47:42.921Z,22.57
2023-03-03T09:50:20.318Z,24.10
2023-03-03T09:52:53.914Z,23.23
2023-03-03T09:55:37.130Z,23.70
2023-03-03T09:58:28.877Z,21.10
2023-03-03T10:01:07.601Z,20.10
2023-03-03T10:04:12.717Z,25.17
2023-03-03T10:06:43.478Z,23.47
2023-03-03T10:09:49.681Z,21.73
2023-03-03T10:12:19.584Z,22.00
2023-03-03T10:15:04.610Z,25.57
2023-03-03T10:17:45.725Z,24.30
2023-03-03T10:20:54.796Z,25.17
2023-03-03T10:23:23.423Z,22.93
2023-03-03T10:25:57.296Z,27.57
2023-03-03T10:29:09.259Z,26.27
2023-03-03T10:31:51.621Z,24.67
2023-03-03T10:34:56.327Z,29.17
2023-03-03T10:37:26.131Z,30.70
2023-03-03T10:40:15.117Z,27.87
2023-03-03T10:43:00.146Z,27.63
2023-03-03T10:46:14.308Z,32.20
2023-03-03T10:49:13.628Z,30.53
2023-03-03T10:51:55.033Z,29.10
2023-03-03T10:54:45.085Z,29.67
2023-03-03T10:57:17.028Z,28.30
2023-03-03T11:00:16.467Z,30.87
2023-03-03T11:02:53.482Z,29.77
2023-03-03T11:05:31.332Z,32.70
2023-03-03T11:08:03.316Z,29.37
2023-03-03T11:10:43.564Z,33.23
2023-03-03T11:13:15.946Z,29.20
2023-03-03T11:15:53.267Z,28.63
2023-03-03T11:18:27.085Z,29.33
2023-03-03T11:20:59.700Z,29.43
2023-03-03T11:23:51.405Z,27.27
2023-03-03T11:26:27.163Z,30.63
2023-03-03T11:29:06.643Z,28.43
2023-03-03T11:31:38.581Z,30.23
2023-03-03T11:34:15.964Z,32.60
2023-03-03T11:36:45.508Z,28.40
2023-03-03T11:39:13.792Z,33.20
2023-03-03T11:41:42.472Z,31.57
2023-03-03T11:44:19.205Z,35.00
2023-03-03T11:46:50.044Z,29.03
2023-03-03T11:49:22.685Z,31.07
2023-03-03T11:52:02.562Z,30.53
2023-03-03T11:54:34.122Z,28.83
2023-03-03T11:57:14.568Z,27.83
2023-03-03T11:59:55.053Z,32.50
2023-03-03T12:03:12.510Z,35.00
2023-03-03T12:05:49.035Z,29.47
2023-03-03T12:08:29.264Z,30.63
2023-03-03T12:11:03.730Z,34.53
2023-03-03T12:13:39.548Z,33.60
2023-03-03T12:16:12.728Z,31.57
2023-03-03T12:19:00.286Z,34.10
2023-03-03T12:24:45.283Z,39.80
2023-03-03T12:27:20.390Z,34.53
2023-03-03T12:29:54.098Z,31.73
2023-03-03T12:32:30.321Z,34.77
2023-03-03T12:35:00.020Z,34.97
2023-03-03T12:37:48.288Z,31.87
2023-03-03T12:40:20.810Z,30.77
2023-03-03T12:43:02.905Z,34.43
2023-03-03T12:45:42.489Z,33.90
2023-03-03T12:48:11.264Z,32.03
2023-03-03T12:50:47.741Z,34.93
2023-03-03T12:53:49.322Z,29.93
2023-03-03T12:56:17.061Z,37.87
2023-03-03T12:58:50.511Z,41.93
2023-03-03T13:01:33.319Z,33.17
2023-03-03T13:04:06.293Z,31.13
2023-03-03T13:06:34.840Z,32.97
2023-03-03T13:09:20.234Z,36.57
2023-03-03T13:12:36.649Z,31.33
2023-03-03T13:15:13.808Z,41.07
2023-03-03T13:17:49.471Z,30.70
2023-03-03T13:20:26.681Z,36.33
2023-03-03T13:22:57.979Z,31.10
2023-03-03T13:25:40.280Z,28.77
2023-03-03T13:28:14.249Z,29.27
2023-03-03T13:30:56.816Z,25.03
2023-03-03T13:33:28.980Z,28.10
2023-03-03T13:35:58.213Z,25.60
2023-03-03T13:38:27.311Z,25.20
2023-03-03T13:40:56.477Z,26.87
2023-03-03T13:43:25.258Z,27.73
2023-03-03T13:46:02.516Z,30.37
2023-03-03T13:48:48.436Z,28.13
2023-03-03T13:51:22.736Z,44.73
2023-03-03T13:54:00.138Z,71.97
2023-03-03T13:56:47.801Z,34.57
2023-03-03T13:59:23.203Z,26.47
2023-03-03T14:01:59.000Z,26.63
2023-03-03T14:04:41.830Z,29.10
2023-03-03T14:07:14.502Z,29.83
2023-03-03T14:10:01.286Z,28.40
2023-03-03T14:12:31.041Z,27.60
2023-03-03T14:15:05.292Z,27.37
2023-03-03T14:17:38.700Z,32.27
2023-03-03T14:20:21.348Z,34.70
2023-03-03T14:22:53.480Z,30.77
2023-03-03T14:25:19.046Z,38.80
2023-03-03T14:28:02.884Z,33.17
2023-03-03T14:30:32.703Z,32.37
2023-03-03T14:33:09.282Z,30.67
2023-03-03T14:35:36.766Z,33.57
2023-03-03T14:38:04.853Z,35.80
2023-03-03T14:40:34.805Z,29.93
2023-03-03T14:43:01.898Z,29.43
2023-03-03T14:45:36.178Z,31.37
2023-03-03T14:48:01.111Z,33.03
2023-03-03T14:50:38.367Z,35.67
2023-03-03T14:53:21.483Z,34.20
2023-03-03T14:55:49.771Z,28.13
2023-03-03T14:58:29.213Z,31.57
2023-03-03T15:00:53.856Z,35.50
2023-03-03T15:03:23.952Z,34.73
2023-03-03T15:05:51.839Z,36.00
2023-03-03T15:08:16.970Z,35.53
2023-03-03T15:10:42.712Z,37.67
2023-03-03T15:13:32.810Z,32.93
2023-03-03T15:16:06.638Z,37.77
2023-03-03T15:18:33.526Z,39.53
2023-03-03T15:21:05.236Z,38.07
2023-03-03T15:23:51.007Z,39.53
2023-03-03T15:26:22.297Z,38.00
2023-03-03T15:29:06.448Z,40.67
2023-03-03T15:31:42.433Z,41.03
2023-03-03T15:34:27.249Z,39.37
2023-03-03T15:37:00.324Z,62.77
2023-03-03T15:39:36.035Z,45.97
2023-03-03T15:42:06.048Z,43.37
2023-03-03T15:44:42.587Z,47.50
2023-03-03T15:47:40.149Z,43.83
2023-03-03T15:50:27.952Z,40.00
2023-03-03T15:53:03.177Z,38.20
2023-03-03T15:55:43.443Z,49.67
2023-03-03T15:58:41.603Z,41.57
2023-03-03T16:01:14.943Z,115.80
2023-03-03T16:03:46.445Z,156.60
2023-03-03T16:06:18.090Z,135.07
2023-03-03T16:08:52.015Z,88.53
2023-03-03T16:11:25.849Z,40.33
2023-03-03T16:14:08.640Z,85.30
2023-03-03T16:16:45.027Z,40.83
2023-03-03T16:19:22.442Z,45.10
2023-03-03T16:22:09.904Z,39.67
2023-03-03T16:24:49.708Z,74.70
2023-03-03T16:27:20.636Z,51.93
2023-03-03T16:30:06.166Z,53.63
2023-03-03T16:32:39.404Z,63.83
2023-03-03T16:35:18.712Z,55.27
2023-03-03T16:37:56.300Z,100.90
2023-03-03T16:40:25.065Z,129.23
2023-03-03T16:42:54.308Z,186.10
2023-03-03T16:45:24.671Z,117.20
2023-03-03T16:48:13.088Z,83.03
2023-03-03T16:50:48.060Z,138.90
2023-03-03T16:53:20.971Z,115.87
2023-03-03T16:55:58.335Z,319.50
2023-03-03T16:58:38.632Z,122.77
2023-03-03T17:01:16.330Z,318.47
2023-03-03T17:04:00.781Z,236.77
2023-03-03T17:06:35.146Z,65.83
2023-03-03T17:09:41.744Z,60.00
2023-03-03T17:12:41.620Z,78.97
2023-03-03T17:15:29.268Z,53.40
2023-03-03T17:18:03.171Z,55.63
2023-03-03T17:20:39.182Z,56.33
2023-03-03T17:23:36.633Z,45.57
2023-03-03T17:26:13.580Z,50.53
2023-03-03T17:28:49.820Z,50.23
2023-03-03T17:31:24.878Z,48.17
2023-03-03T17:34:03.968Z,40.23
2023-03-03T17:36:43.102Z,41.47
2023-03-03T17:39:25.759Z,39.97
2023-03-03T17:41:59.854Z,42.43
2023-03-03T17:44:33.606Z,47.73
2023-03-03T17:47:01.672Z,47.93
2023-03-03T17:49:56.032Z,42.93
2023-03-03T17:52:40.674Z,45.83
2023-03-03T17:55:48.481Z,47.60
2023-03-03T17:58:49.213Z,48.13
2023-03-03T18:01:26.945Z,48.53
2023-03-03T18:04:22.886Z,51.60
2023-03-03T18:07:36.519Z,51.70
2023-03-03T18:10:32.704Z,46.77
2023-03-03T18:13:07.755Z,42.30
2023-03-03T18:15:51.863Z,39.23
2023-03-03T18:18:53.789Z,45.73
2023-03-03T18:21:22.687Z,37.13
2023-03-03T18:23:48.942Z,41.57
2023-03-03T18:26:36.705Z,41.27
2023-03-03T18:29:24.681Z,43.23
2023-03-03T18:32:19.805Z,58.13
2023-03-03T18:34:44.141Z,44.63
2023-03-03T18:37:38.655Z,69.53
2023-03-03T18:40:31.854Z,55.97
2023-03-03T18:42:55.432Z,42.60
2023-03-03T18:45:51.783Z,116.50
2023-03-03T18:48:17.393Z,168.13
2023-03-03T18:50:43.260Z,85.57
2023-03-03T18:53:27.120Z,118.73
2023-03-03T18:55:52.488Z,106.13
2023-03-03T18:58:41.973Z,97.40
2023-03-03T19:01:44.383Z,197.93
2023-03-03T19:04:21.405Z,110.57
2023-03-03T19:07:24.829Z,130.50
2023-03-03T19:09:57.387Z,333.67
2023-03-03T19:12:52.561Z,226.67
2023-03-03T19:15:55.645Z,129.70
2023-03-03T19:18:23.746Z,114.43
2023-03-03T19:20:51.943Z,97.33
2023-03-03T19:23:19.865Z,120.77
2023-03-03T19:25:44.945Z,136.03
2023-03-03T19:28:33.340Z,87.30
2023-03-03T19:30:59.054Z,79.43
2023-03-03T19:33:38.494Z,73.93
2023-03-03T19:36:45.504Z,69.90
2023-03-03T19:39:34.000Z,76.97
2023-03-03T19:42:08.425Z,65.67
2023-03-03T19:45:00.658Z,46.20
2023-03-03T19:47:35.645Z,61.77
2023-03-03T19:50:23.762Z,50.93
2023-03-03T19:52:57.596Z,44.60
2023-03-03T19:55:29.560Z,45.03
2023-03-03T19:58:09.136Z,45.30
2023-03-03T20:00:40.442Z,50.63
2023-03-03T20:03:41.512Z,42.40
2023-03-03T20:06:25.158Z,45.27
2023-03-03T20:08:58.712Z,45.93
2023-03-03T20:11:46.162Z,41.87
2023-03-03T20:14:28.121Z,43.23
2023-03-03T20:16:57.784Z,47.40
2023-03-03T20:19:39.412Z,34.27
2023-03-03T20:22:10.650Z,35.10
2023-03-03T20:25:04.841Z,35.43
2023-03-03T20:27:37.379Z,31.60
2023-03-03T20:30:30.978Z,22.63
2023-03-03T20:33:13.948Z,25.50
2023-03-03T20:35:51.521Z,21.30
2023-03-03T20:38:26.604Z,19.20
2023-03-03T20:40:56.546Z,22.73
2023-03-03T20:43:47.153Z,19.40
2023-03-03T20:46:23.226Z,24.53
2023-03-03T20:49:05.126Z,20.73
2023-03-03T20:51:36.301Z,18.73
2023-03-03T20:54:15.157Z,22.63
2023-03-03T20:56:48.473Z,23.47
2023-03-03T20:59:25.534Z,19.33
2023-03-03T21:02:01.231Z,23.10
2023-03-03T21:04:28.019Z,20.73
2023-03-03T21:06:52.611Z,24.07
2023-03-03T21:09:28.199Z,19.27
2023-03-03T21:11:52.093Z,23.60
2023-03-03T21:14:21.529Z,23.53
2023-03-03T21:16:45.510Z,26.00
2023-03-03T21:19:13.844Z,22.43
2023-03-03T21:21:42.379Z,23.63
2023-03-03T21:24:07.377Z,28.77
2023-03-03T21:26:53.781Z,25.63
2023-03-03T21:29:25.092Z,21.77
2023-03-03T21:31:50.309Z,26.77
2023-03-03T21:34:29.281Z,24.73
2023-03-03T21:36:54.196Z,26.20
2023-03-03T21:39:27.738Z,26.53
2023-03-03T21:41:57.287Z,26.33
2023-03-03T21:44:39.263Z,27.90
2023-03-03T21:47:03.457Z,28.77
2023-03-03T21:49:28.849Z,32.87
2023-03-03T21:51:52.552Z,28.03
2023-03-03T21:54:16.154Z,27.40
2023-03-03T21:56:41.781Z,29.03
2023-03-03T21:59:05.411Z,30.47
2023-03-03T22:01:28.994Z,35.33
2023-03-03T22:03:52.620Z,36.17
2023-03-03T22:06:17.701Z,28.70
2023-03-03T22:08:41.386Z,28.70
2023-03-03T22:11:05.685Z,33.30
2023-03-03T22:13:29.283Z,30.53
2023-03-03T22:15:53.613Z,28.33
2023-03-03T22:18:19.287Z,31.43
2023-03-03T22:20:42.885Z,32.10
2023-03-03T22:23:07.906Z,29.33
2023-03-03T22:25:31.537Z,29.03
2023-03-03T22:27:55.082Z,29.57
2023-03-03T22:30:19.266Z,35.07
2023-03-03T22:32:42.854Z,30.73
2023-03-03T22:35:08.078Z,28.00
2023-03-03T22:37:31.704Z,31.37
2023-03-03T22:39:56.864Z,27.53
2023-03-03T22:42:20.679Z,28.60
2023-03-03T22:44:45.888Z,27.63
2023-03-03T22:47:09.595Z,29.83
2023-03-03T22:49:33.175Z,30.40
2023-03-03T22:51:58.828Z,29.40
2023-03-03T22:54:22.438Z,29.43
2023-03-03T22:56:47.479Z,36.73
2023-03-03T22:59:11.084Z,33.37
2023-03-03T23:01:34.627Z,39.83
2023-03-03T23:03:58.328Z,32.00
2023-03-03T23:06:21.845Z,30.37
2023-03-03T23:08:45.593Z,32.47
2023-03-03T23:11:09.185Z,30.80
2023-03-03T23:13:35.283Z,36.00
2023-03-03T23:16:00.351Z,30.70
2023-03-03T23:18:24.075Z,30.90
2023-03-03T23:20:47.626Z,34.27
2023-03-03T23:23:11.187Z,31.53
2023-03-03T23:25:35.139Z,34.77
2023-03-03T23:27:59.334Z,35.70
2023-03-03T23:30:25.301Z,34.23
2023-03-03T23:32:49.548Z,38.63
2023-03-03T23:35:13.136Z,35.83
2023-03-03T23:37:37.022Z,37.10
2023-03-03T23:40:00.605Z,43.17
2023-03-03T23:42:24.994Z,40.83
2023-03-03T23:44:48.750Z,41.83
2023-03-03T23:47:13.836Z,50.47
2023-03-03T23:49:37.845Z,51.07
2023-03-03T23:52:01.547Z,52.77
2023-03-03T23:54:25.257Z,52.53
2023-03-03T23:56:48.876Z,58.03
2023-03-03T23:59:12.400Z,51.63
